sensor_id;sensor_type;location;lat;lon;timestamp;P1;durP1;ratioP1;P2;durP2;ratioP2
84784;SDS011;75017;41.576;24.704;2024-03-29T00:02:03;13.32;;;4.43;;
84784;SDS011;75017;41.576;24.704;2024-03-29T00:04:28;14.77;;;4.18;;
84784;SDS011;75017;41.576;24.704;2024-03-29T00:06:54;12.93;;;3.80;;
84784;SDS011;75017;41.576;24.704;2024-03-29T00:09:20;10.00;;;3.63;;
84784;SDS011;75017;41.576;24.704;2024-03-29T00:11:45;8.43;;;3.28;;
84784;SDS011;75017;41.576;24.704;2024-03-29T00:14:11;11.10;;;3.72;;
84784;SDS011;75017;41.576;24.704;2024-03-29T00:16:36;8.18;;;3.90;;
84784;SDS011;75017;41.576;24.704;2024-03-29T00:19:02;7.35;;;2.97;;
84784;SDS011;75017;41.576;24.704;2024-03-29T00:21:27;9.68;;;3.60;;
84784;SDS011;75017;41.576;24.704;2024-03-29T00:23:53;11.05;;;2.70;;
84784;SDS011;75017;41.576;24.704;2024-03-29T00:26:18;7.80;;;4.15;;
84784;SDS011;75017;41.576;24.704;2024-03-29T00:28:44;12.50;;;4.18;;
84784;SDS011;75017;41.576;24.704;2024-03-29T00:31:09;13.55;;;5.03;;
84784;SDS011;75017;41.576;24.704;2024-03-29T00:33:35;10.95;;;5.47;;
84784;SDS011;75017;41.576;24.704;2024-03-29T00:36:00;11.07;;;5.15;;
84784;SDS011;75017;41.576;24.704;2024-03-29T00:38:26;12.05;;;2.80;;
84784;SDS011;75017;41.576;24.704;2024-03-29T00:40:52;13.70;;;2.45;;
84784;SDS011;75017;41.576;24.704;2024-03-29T00:43:17;8.68;;;2.25;;
84784;SDS011;75017;41.576;24.704;2024-03-29T00:45:42;5.80;;;2.38;;
84784;SDS011;75017;41.576;24.704;2024-03-29T00:48:09;9.93;;;2.85;;
84784;SDS011;75017;41.576;24.704;2024-03-29T00:50:34;9.25;;;3.72;;
84784;SDS011;75017;41.576;24.704;2024-03-29T00:53:00;10.63;;;3.13;;
84784;SDS011;75017;41.576;24.704;2024-03-29T00:55:25;14.98;;;3.88;;
84784;SDS011;75017;41.576;24.704;2024-03-29T00:57:51;12.40;;;4.20;;
84784;SDS011;75017;41.576;24.704;2024-03-29T01:00:16;10.60;;;2.08;;
84784;SDS011;75017;41.576;24.704;2024-03-29T01:02:42;7.65;;;2.55;;
84784;SDS011;75017;41.576;24.704;2024-03-29T01:05:08;8.35;;;2.35;;
84784;SDS011;75017;41.576;24.704;2024-03-29T01:07:33;9.90;;;2.90;;
84784;SDS011;75017;41.576;24.704;2024-03-29T01:09:59;7.82;;;2.92;;
84784;SDS011;75017;41.576;24.704;2024-03-29T01:12:25;9.10;;;3.03;;
84784;SDS011;75017;41.576;24.704;2024-03-29T01:14:51;6.43;;;2.72;;
84784;SDS011;75017;41.576;24.704;2024-03-29T01:17:16;12.13;;;3.25;;
84784;SDS011;75017;41.576;24.704;2024-03-29T01:19:43;11.15;;;3.15;;
84784;SDS011;75017;41.576;24.704;2024-03-29T01:22:08;7.70;;;2.80;;
84784;SDS011;75017;41.576;24.704;2024-03-29T01:24:34;4.93;;;1.75;;
84784;SDS011;75017;41.576;24.704;2024-03-29T01:26:59;7.55;;;1.95;;
84784;SDS011;75017;41.576;24.704;2024-03-29T01:29:25;7.15;;;2.33;;
84784;SDS011;75017;41.576;24.704;2024-03-29T01:31:50;8.45;;;3.45;;
84784;SDS011;75017;41.576;24.704;2024-03-29T01:34:16;3.97;;;1.48;;
84784;SDS011;75017;41.576;24.704;2024-03-29T01:36:42;7.57;;;1.92;;
84784;SDS011;75017;41.576;24.704;2024-03-29T01:39:08;10.10;;;2.30;;
84784;SDS011;75017;41.576;24.704;2024-03-29T01:41:36;5.68;;;2.33;;
84784;SDS011;75017;41.576;24.704;2024-03-29T01:44:01;5.18;;;1.77;;
84784;SDS011;75017;41.576;24.704;2024-03-29T01:46:27;6.90;;;2.17;;
84784;SDS011;75017;41.576;24.704;2024-03-29T01:48:53;6.97;;;2.30;;
84784;SDS011;75017;41.576;24.704;2024-03-29T01:51:19;8.85;;;2.95;;
84784;SDS011;75017;41.576;24.704;2024-03-29T01:53:50;9.60;;;3.58;;
84784;SDS011;75017;41.576;24.704;2024-03-29T01:56:18;11.13;;;3.38;;
84784;SDS011;75017;41.576;24.704;2024-03-29T01:58:46;9.30;;;4.07;;
84784;SDS011;75017;41.576;24.704;2024-03-29T02:01:19;12.30;;;3.53;;
84784;SDS011;75017;41.576;24.704;2024-03-29T02:03:46;13.38;;;3.35;;
84784;SDS011;75017;41.576;24.704;2024-03-29T02:06:12;12.77;;;3.47;;
84784;SDS011;75017;41.576;24.704;2024-03-29T02:08:38;12.45;;;3.88;;
84784;SDS011;75017;41.576;24.704;2024-03-29T02:11:04;7.30;;;3.22;;
84784;SDS011;75017;41.576;24.704;2024-03-29T02:13:30;9.02;;;3.35;;
84784;SDS011;75017;41.576;24.704;2024-03-29T02:15:56;15.50;;;3.85;;
84784;SDS011;75017;41.576;24.704;2024-03-29T02:18:22;9.77;;;3.35;;
84784;SDS011;75017;41.576;24.704;2024-03-29T02:20:47;9.57;;;3.85;;
84784;SDS011;75017;41.576;24.704;2024-03-29T02:23:18;10.02;;;3.33;;
84784;SDS011;75017;41.576;24.704;2024-03-29T02:25:45;14.05;;;4.03;;
84784;SDS011;75017;41.576;24.704;2024-03-29T02:28:11;13.93;;;4.63;;
84784;SDS011;75017;41.576;24.704;2024-03-29T02:30:37;7.28;;;4.15;;
84784;SDS011;75017;41.576;24.704;2024-03-29T02:33:03;9.65;;;3.00;;
84784;SDS011;75017;41.576;24.704;2024-03-29T02:35:29;6.68;;;2.67;;
84784;SDS011;75017;41.576;24.704;2024-03-29T02:37:54;6.10;;;2.47;;
84784;SDS011;75017;41.576;24.704;2024-03-29T02:40:20;8.98;;;3.28;;
84784;SDS011;75017;41.576;24.704;2024-03-29T02:42:47;7.50;;;3.05;;
84784;SDS011;75017;41.576;24.704;2024-03-29T02:45:13;8.35;;;3.20;;
84784;SDS011;75017;41.576;24.704;2024-03-29T02:47:39;9.20;;;2.97;;
84784;SDS011;75017;41.576;24.704;2024-03-29T02:50:06;10.05;;;3.50;;
84784;SDS011;75017;41.576;24.704;2024-03-29T02:52:33;12.80;;;4.85;;
84784;SDS011;75017;41.576;24.704;2024-03-29T02:54:58;13.02;;;5.30;;
84784;SDS011;75017;41.576;24.704;2024-03-29T02:57:24;7.78;;;3.72;;
84784;SDS011;75017;41.576;24.704;2024-03-29T02:59:49;10.30;;;3.80;;
84784;SDS011;75017;41.576;24.704;2024-03-29T03:02:15;11.90;;;4.82;;
84784;SDS011;75017;41.576;24.704;2024-03-29T03:04:40;10.30;;;3.95;;
84784;SDS011;75017;41.576;24.704;2024-03-29T03:07:06;11.45;;;4.43;;
84784;SDS011;75017;41.576;24.704;2024-03-29T03:09:50;9.32;;;4.57;;
84784;SDS011;75017;41.576;24.704;2024-03-29T03:12:34;8.18;;;3.63;;
84784;SDS011;75017;41.576;24.704;2024-03-29T03:14:59;10.05;;;3.72;;
84784;SDS011;75017;41.576;24.704;2024-03-29T03:17:28;8.02;;;3.33;;
84784;SDS011;75017;41.576;24.704;2024-03-29T03:19:53;8.57;;;3.00;;
84784;SDS011;75017;41.576;24.704;2024-03-29T03:22:19;7.40;;;2.92;;
84784;SDS011;75017;41.576;24.704;2024-03-29T03:24:45;6.95;;;2.40;;
84784;SDS011;75017;41.576;24.704;2024-03-29T03:27:10;9.50;;;3.15;;
84784;SDS011;75017;41.576;24.704;2024-03-29T03:29:36;6.45;;;3.15;;
84784;SDS011;75017;41.576;24.704;2024-03-29T03:32:01;8.55;;;3.13;;
84784;SDS011;75017;41.576;24.704;2024-03-29T03:34:27;7.85;;;3.20;;
84784;SDS011;75017;41.576;24.704;2024-03-29T03:36:53;13.40;;;5.30;;
84784;SDS011;75017;41.576;24.704;2024-03-29T03:39:18;11.07;;;4.63;;
84784;SDS011;75017;41.576;24.704;2024-03-29T03:41:44;7.85;;;3.40;;
84784;SDS011;75017;41.576;24.704;2024-03-29T03:44:09;6.45;;;1.92;;
84784;SDS011;75017;41.576;24.704;2024-03-29T03:46:34;6.32;;;2.10;;
84784;SDS011;75017;41.576;24.704;2024-03-29T03:49:00;8.55;;;2.65;;
84784;SDS011;75017;41.576;24.704;2024-03-29T03:51:26;4.35;;;1.50;;
84784;SDS011;75017;41.576;24.704;2024-03-29T03:53:51;5.55;;;1.35;;
84784;SDS011;75017;41.576;24.704;2024-03-29T03:56:17;4.93;;;1.65;;
84784;SDS011;75017;41.576;24.704;2024-03-29T03:58:44;6.75;;;2.05;;
84784;SDS011;75017;41.576;24.704;2024-03-29T04:01:09;8.40;;;3.00;;
84784;SDS011;75017;41.576;24.704;2024-03-29T04:03:35;8.05;;;2.70;;
84784;SDS011;75017;41.576;24.704;2024-03-29T04:06:03;12.57;;;7.03;;
84784;SDS011;75017;41.576;24.704;2024-03-29T04:08:29;16.88;;;9.05;;
84784;SDS011;75017;41.576;24.704;2024-03-29T04:10:55;15.93;;;8.65;;
84784;SDS011;75017;41.576;24.704;2024-03-29T04:13:20;21.13;;;10.93;;
84784;SDS011;75017;41.576;24.704;2024-03-29T04:15:46;21.77;;;11.40;;
84784;SDS011;75017;41.576;24.704;2024-03-29T04:18:11;15.40;;;8.13;;
84784;SDS011;75017;41.576;24.704;2024-03-29T04:20:36;53.05;;;18.42;;
84784;SDS011;75017;41.576;24.704;2024-03-29T04:23:05;60.58;;;21.70;;
84784;SDS011;75017;41.576;24.704;2024-03-29T04:25:32;28.40;;;9.75;;
84784;SDS011;75017;41.576;24.704;2024-03-29T04:27:58;16.50;;;7.00;;
84784;SDS011;75017;41.576;24.704;2024-03-29T04:30:24;15.68;;;7.80;;
84784;SDS011;75017;41.576;24.704;2024-03-29T04:32:49;12.95;;;7.60;;
84784;SDS011;75017;41.576;24.704;2024-03-29T04:35:15;17.50;;;8.05;;
84784;SDS011;75017;41.576;24.704;2024-03-29T04:37:40;14.82;;;8.02;;
84784;SDS011;75017;41.576;24.704;2024-03-29T04:40:06;16.55;;;7.65;;
84784;SDS011;75017;41.576;24.704;2024-03-29T04:42:32;22.60;;;9.10;;
84784;SDS011;75017;41.576;24.704;2024-03-29T04:44:57;17.13;;;9.05;;
84784;SDS011;75017;41.576;24.704;2024-03-29T04:47:23;15.57;;;7.28;;
84784;SDS011;75017;41.576;24.704;2024-03-29T04:49:48;12.10;;;7.13;;
84784;SDS011;75017;41.576;24.704;2024-03-29T04:52:14;11.90;;;5.97;;
84784;SDS011;75017;41.576;24.704;2024-03-29T04:54:39;12.60;;;5.25;;
84784;SDS011;75017;41.576;24.704;2024-03-29T04:57:05;10.55;;;4.97;;
84784;SDS011;75017;41.576;24.704;2024-03-29T04:59:33;9.60;;;4.78;;
84784;SDS011;75017;41.576;24.704;2024-03-29T05:01:59;9.73;;;3.90;;
84784;SDS011;75017;41.576;24.704;2024-03-29T05:04:25;9.65;;;4.78;;
84784;SDS011;75017;41.576;24.704;2024-03-29T05:06:51;16.13;;;5.22;;
84784;SDS011;75017;41.576;24.704;2024-03-29T05:09:17;13.05;;;5.28;;
84784;SDS011;75017;41.576;24.704;2024-03-29T05:11:43;13.13;;;5.53;;
84784;SDS011;75017;41.576;24.704;2024-03-29T05:14:08;16.33;;;6.43;;
84784;SDS011;75017;41.576;24.704;2024-03-29T05:16:35;13.45;;;6.25;;
84784;SDS011;75017;41.576;24.704;2024-03-29T05:19:00;18.55;;;7.47;;
84784;SDS011;75017;41.576;24.704;2024-03-29T05:21:26;22.27;;;9.00;;
84784;SDS011;75017;41.576;24.704;2024-03-29T05:23:51;19.05;;;8.93;;
84784;SDS011;75017;41.576;24.704;2024-03-29T05:26:18;14.25;;;7.10;;
84784;SDS011;75017;41.576;24.704;2024-03-29T05:28:43;20.50;;;6.63;;
84784;SDS011;75017;41.576;24.704;2024-03-29T05:31:13;13.90;;;7.22;;
84784;SDS011;75017;41.576;24.704;2024-03-29T05:33:42;16.05;;;6.80;;
84784;SDS011;75017;41.576;24.704;2024-03-29T05:36:07;25.20;;;7.85;;
84784;SDS011;75017;41.576;24.704;2024-03-29T05:38:36;15.20;;;5.80;;
84784;SDS011;75017;41.576;24.704;2024-03-29T05:41:02;10.45;;;4.15;;
84784;SDS011;75017;41.576;24.704;2024-03-29T05:43:28;19.05;;;7.47;;
84784;SDS011;75017;41.576;24.704;2024-03-29T05:45:53;16.15;;;7.07;;
84784;SDS011;75017;41.576;24.704;2024-03-29T05:48:19;14.32;;;7.35;;
84784;SDS011;75017;41.576;24.704;2024-03-29T05:50:44;17.40;;;7.53;;
84784;SDS011;75017;41.576;24.704;2024-03-29T05:53:10;18.52;;;9.73;;
84784;SDS011;75017;41.576;24.704;2024-03-29T05:55:36;14.38;;;6.65;;
84784;SDS011;75017;41.576;24.704;2024-03-29T05:58:02;22.75;;;10.15;;
84784;SDS011;75017;41.576;24.704;2024-03-29T06:00:28;19.38;;;7.60;;
84784;SDS011;75017;41.576;24.704;2024-03-29T06:02:54;19.95;;;9.27;;
84784;SDS011;75017;41.576;24.704;2024-03-29T06:05:20;16.63;;;8.70;;
84784;SDS011;75017;41.576;24.704;2024-03-29T06:07:45;22.67;;;9.43;;
84784;SDS011;75017;41.576;24.704;2024-03-29T06:10:11;21.15;;;9.68;;
84784;SDS011;75017;41.576;24.704;2024-03-29T06:12:36;19.20;;;10.75;;
84784;SDS011;75017;41.576;24.704;2024-03-29T06:15:06;20.25;;;9.68;;
84784;SDS011;75017;41.576;24.704;2024-03-29T06:17:50;16.00;;;7.57;;
84784;SDS011;75017;41.576;24.704;2024-03-29T06:20:15;11.95;;;6.97;;
84784;SDS011;75017;41.576;24.704;2024-03-29T06:22:41;13.90;;;7.38;;
84784;SDS011;75017;41.576;24.704;2024-03-29T06:25:07;14.95;;;7.57;;
84784;SDS011;75017;41.576;24.704;2024-03-29T06:27:34;17.40;;;7.55;;
84784;SDS011;75017;41.576;24.704;2024-03-29T06:30:01;16.27;;;7.32;;
84784;SDS011;75017;41.576;24.704;2024-03-29T06:32:28;14.20;;;6.93;;
84784;SDS011;75017;41.576;24.704;2024-03-29T06:34:54;18.83;;;8.23;;
84784;SDS011;75017;41.576;24.704;2024-03-29T06:37:19;11.55;;;8.52;;
84784;SDS011;75017;41.576;24.704;2024-03-29T06:39:50;11.75;;;5.78;;
84784;SDS011;75017;41.576;24.704;2024-03-29T06:42:16;8.75;;;4.13;;
84784;SDS011;75017;41.576;24.704;2024-03-29T06:44:41;12.27;;;4.50;;
84784;SDS011;75017;41.576;24.704;2024-03-29T06:47:07;11.65;;;5.13;;
84784;SDS011;75017;41.576;24.704;2024-03-29T06:49:33;13.30;;;5.72;;
84784;SDS011;75017;41.576;24.704;2024-03-29T06:51:59;9.80;;;5.25;;
84784;SDS011;75017;41.576;24.704;2024-03-29T06:54:26;10.63;;;4.72;;
84784;SDS011;75017;41.576;24.704;2024-03-29T06:56:55;11.98;;;5.32;;
84784;SDS011;75017;41.576;24.704;2024-03-29T06:59:21;19.67;;;11.57;;
84784;SDS011;75017;41.576;24.704;2024-03-29T07:01:48;15.48;;;7.32;;
84784;SDS011;75017;41.576;24.704;2024-03-29T07:04:17;9.90;;;4.30;;
84784;SDS011;75017;41.576;24.704;2024-03-29T07:06:45;7.30;;;2.90;;
84784;SDS011;75017;41.576;24.704;2024-03-29T07:09:13;9.25;;;3.60;;
84784;SDS011;75017;41.576;24.704;2024-03-29T07:11:39;10.00;;;3.92;;
84784;SDS011;75017;41.576;24.704;2024-03-29T07:14:05;9.75;;;4.40;;
84784;SDS011;75017;41.576;24.704;2024-03-29T07:16:31;16.70;;;4.53;;
84784;SDS011;75017;41.576;24.704;2024-03-29T07:18:57;5.68;;;2.90;;
84784;SDS011;75017;41.576;24.704;2024-03-29T07:21:22;7.22;;;4.18;;
84784;SDS011;75017;41.576;24.704;2024-03-29T07:23:49;15.85;;;9.43;;
84784;SDS011;75017;41.576;24.704;2024-03-29T07:26:14;19.23;;;9.43;;
84784;SDS011;75017;41.576;24.704;2024-03-29T07:28:40;18.02;;;9.27;;
84784;SDS011;75017;41.576;24.704;2024-03-29T07:31:06;9.25;;;4.32;;
84784;SDS011;75017;41.576;24.704;2024-03-29T07:33:32;11.95;;;3.90;;
84784;SDS011;75017;41.576;24.704;2024-03-29T07:35:58;11.38;;;5.22;;
84784;SDS011;75017;41.576;24.704;2024-03-29T07:38:23;10.30;;;4.15;;
84784;SDS011;75017;41.576;24.704;2024-03-29T07:40:51;7.25;;;5.03;;
84784;SDS011;75017;41.576;24.704;2024-03-29T07:43:18;10.82;;;4.57;;
84784;SDS011;75017;41.576;24.704;2024-03-29T07:45:44;5.75;;;3.40;;
84784;SDS011;75017;41.576;24.704;2024-03-29T07:48:14;11.02;;;2.97;;
84784;SDS011;75017;41.576;24.704;2024-03-29T07:50:41;15.68;;;2.88;;
84784;SDS011;75017;41.576;24.704;2024-03-29T07:53:07;3.47;;;1.10;;
84784;SDS011;75017;41.576;24.704;2024-03-29T07:55:35;4.10;;;1.00;;
84784;SDS011;75017;41.576;24.704;2024-03-29T07:58:00;3.33;;;1.63;;
84784;SDS011;75017;41.576;24.704;2024-03-29T08:00:26;2.00;;;1.02;;
84784;SDS011;75017;41.576;24.704;2024-03-29T08:02:51;5.35;;;1.10;;
84784;SDS011;75017;41.576;24.704;2024-03-29T08:05:18;6.22;;;1.00;;
84784;SDS011;75017;41.576;24.704;2024-03-29T08:07:45;2.92;;;1.15;;
84784;SDS011;75017;41.576;24.704;2024-03-29T08:10:11;2.83;;;0.70;;
84784;SDS011;75017;41.576;24.704;2024-03-29T08:12:36;5.30;;;1.27;;
84784;SDS011;75017;41.576;24.704;2024-03-29T08:15:02;3.55;;;1.63;;
84784;SDS011;75017;41.576;24.704;2024-03-29T08:17:28;9.27;;;1.85;;
84784;SDS011;75017;41.576;24.704;2024-03-29T08:19:54;2.10;;;0.88;;
84784;SDS011;75017;41.576;24.704;2024-03-29T08:22:19;5.97;;;1.17;;
84784;SDS011;75017;41.576;24.704;2024-03-29T08:24:46;6.85;;;1.38;;
84784;SDS011;75017;41.576;24.704;2024-03-29T08:27:11;3.65;;;1.05;;
84784;SDS011;75017;41.576;24.704;2024-03-29T08:29:37;2.72;;;1.08;;
84784;SDS011;75017;41.576;24.704;2024-03-29T08:32:03;4.65;;;0.90;;
84784;SDS011;75017;41.576;24.704;2024-03-29T08:34:29;1.45;;;0.90;;
84784;SDS011;75017;41.576;24.704;2024-03-29T08:37:01;3.75;;;0.70;;
84784;SDS011;75017;41.576;24.704;2024-03-29T08:39:28;3.30;;;0.45;;
84784;SDS011;75017;41.576;24.704;2024-03-29T08:41:54;7.78;;;1.02;;
84784;SDS011;75017;41.576;24.704;2024-03-29T08:44:19;5.45;;;1.75;;
84784;SDS011;75017;41.576;24.704;2024-03-29T08:46:45;4.15;;;0.68;;
84784;SDS011;75017;41.576;24.704;2024-03-29T08:49:10;8.38;;;2.53;;
84784;SDS011;75017;41.576;24.704;2024-03-29T08:51:36;4.93;;;0.90;;
84784;SDS011;75017;41.576;24.704;2024-03-29T08:54:01;2.72;;;0.80;;
84784;SDS011;75017;41.576;24.704;2024-03-29T08:56:30;3.05;;;0.73;;
84784;SDS011;75017;41.576;24.704;2024-03-29T08:59:02;3.13;;;0.95;;
84784;SDS011;75017;41.576;24.704;2024-03-29T09:01:36;2.78;;;1.17;;
84784;SDS011;75017;41.576;24.704;2024-03-29T09:04:03;4.50;;;0.70;;
84784;SDS011;75017;41.576;24.704;2024-03-29T09:06:31;5.05;;;1.20;;
84784;SDS011;75017;41.576;24.704;2024-03-29T09:08:57;6.80;;;1.35;;
84784;SDS011;75017;41.576;24.704;2024-03-29T09:11:23;2.97;;;1.23;;
84784;SDS011;75017;41.576;24.704;2024-03-29T09:13:48;4.05;;;0.47;;
84784;SDS011;75017;41.576;24.704;2024-03-29T09:16:14;9.88;;;1.30;;
84784;SDS011;75017;41.576;24.704;2024-03-29T09:18:39;15.57;;;1.30;;
84784;SDS011;75017;41.576;24.704;2024-03-29T09:21:05;1.52;;;0.40;;
84784;SDS011;75017;41.576;24.704;2024-03-29T09:23:31;3.97;;;2.13;;
84784;SDS011;75017;41.576;24.704;2024-03-29T09:25:58;1.05;;;0.50;;
84784;SDS011;75017;41.576;24.704;2024-03-29T09:28:23;1.88;;;0.80;;
84784;SDS011;75017;41.576;24.704;2024-03-29T09:30:49;4.93;;;0.80;;
84784;SDS011;75017;41.576;24.704;2024-03-29T09:33:15;1.60;;;0.80;;
84784;SDS011;75017;41.576;24.704;2024-03-29T09:35:41;2.00;;;0.68;;
84784;SDS011;75017;41.576;24.704;2024-03-29T09:38:06;2.72;;;0.85;;
84784;SDS011;75017;41.576;24.704;2024-03-29T09:40:32;1.45;;;0.50;;
84784;SDS011;75017;41.576;24.704;2024-03-29T09:42:59;0.77;;;0.32;;
84784;SDS011;75017;41.576;24.704;2024-03-29T09:45:32;1.08;;;0.50;;
84784;SDS011;75017;41.576;24.704;2024-03-29T09:48:06;3.30;;;0.80;;
84784;SDS011;75017;41.576;24.704;2024-03-29T09:50:36;1.33;;;0.60;;
84784;SDS011;75017;41.576;24.704;2024-03-29T09:53:04;2.20;;;0.95;;
84784;SDS011;75017;41.576;24.704;2024-03-29T09:55:30;4.10;;;1.00;;
84784;SDS011;75017;41.576;24.704;2024-03-29T09:57:56;2.65;;;0.93;;
84784;SDS011;75017;41.576;24.704;2024-03-29T10:00:22;3.45;;;0.60;;
84784;SDS011;75017;41.576;24.704;2024-03-29T10:02:49;5.72;;;0.80;;
84784;SDS011;75017;41.576;24.704;2024-03-29T10:05:15;2.17;;;0.43;;
84784;SDS011;75017;41.576;24.704;2024-03-29T10:07:42;6.45;;;1.08;;
84784;SDS011;75017;41.576;24.704;2024-03-29T10:10:09;2.03;;;0.85;;
84784;SDS011;75017;41.576;24.704;2024-03-29T10:12:36;3.22;;;0.75;;
84784;SDS011;75017;41.576;24.704;2024-03-29T10:15:03;3.17;;;0.70;;
84784;SDS011;75017;41.576;24.704;2024-03-29T10:17:39;1.95;;;1.30;;
84784;SDS011;75017;41.576;24.704;2024-03-29T10:22:43;4.63;;;2.05;;
84784;SDS011;75017;41.576;24.704;2024-03-29T10:25:15;3.45;;;1.00;;
84784;SDS011;75017;41.576;24.704;2024-03-29T10:27:41;3.33;;;1.05;;
84784;SDS011;75017;41.576;24.704;2024-03-29T10:30:07;4.88;;;0.93;;
84784;SDS011;75017;41.576;24.704;2024-03-29T10:32:36;3.10;;;0.80;;
84784;SDS011;75017;41.576;24.704;2024-03-29T10:35:05;2.13;;;0.68;;
84784;SDS011;75017;41.576;24.704;2024-03-29T10:37:31;3.20;;;1.05;;
84784;SDS011;75017;41.576;24.704;2024-03-29T10:40:00;2.72;;;0.88;;
84784;SDS011;75017;41.576;24.704;2024-03-29T10:42:27;2.17;;;0.85;;
84784;SDS011;75017;41.576;24.704;2024-03-29T10:44:53;5.28;;;1.35;;
84784;SDS011;75017;41.576;24.704;2024-03-29T10:47:20;3.80;;;1.20;;
84784;SDS011;75017;41.576;24.704;2024-03-29T10:49:51;3.28;;;0.82;;
84784;SDS011;75017;41.576;24.704;2024-03-29T10:52:16;3.30;;;0.70;;
84784;SDS011;75017;41.576;24.704;2024-03-29T10:54:45;4.20;;;1.10;;
84784;SDS011;75017;41.576;24.704;2024-03-29T10:57:15;3.35;;;1.10;;
84784;SDS011;75017;41.576;24.704;2024-03-29T10:59:49;2.90;;;1.15;;
84784;SDS011;75017;41.576;24.704;2024-03-29T11:02:42;5.85;;;0.95;;
84784;SDS011;75017;41.576;24.704;2024-03-29T11:05:09;3.65;;;1.02;;
84784;SDS011;75017;41.576;24.704;2024-03-29T11:07:39;4.43;;;1.13;;
84784;SDS011;75017;41.576;24.704;2024-03-29T11:10:53;2.30;;;0.60;;
84784;SDS011;75017;41.576;24.704;2024-03-29T11:15:48;4.88;;;0.65;;
84784;SDS011;75017;41.576;24.704;2024-03-29T11:18:15;2.58;;;0.90;;
84784;SDS011;75017;41.576;24.704;2024-03-29T11:20:43;4.38;;;1.05;;
84784;SDS011;75017;41.576;24.704;2024-03-29T11:23:15;3.50;;;1.00;;
84784;SDS011;75017;41.576;24.704;2024-03-29T11:25:42;13.70;;;2.45;;
84784;SDS011;75017;41.576;24.704;2024-03-29T11:28:15;4.60;;;0.88;;
84784;SDS011;75017;41.576;24.704;2024-03-29T11:30:49;3.90;;;1.00;;
84784;SDS011;75017;41.576;24.704;2024-03-29T11:33:29;1.17;;;0.60;;
84784;SDS011;75017;41.576;24.704;2024-03-29T11:35:55;6.38;;;1.50;;
84784;SDS011;75017;41.576;24.704;2024-03-29T11:38:31;6.55;;;1.40;;
84784;SDS011;75017;41.576;24.704;2024-03-29T11:43:43;5.32;;;1.30;;
84784;SDS011;75017;41.576;24.704;2024-03-29T11:46:10;4.43;;;0.98;;
84784;SDS011;75017;41.576;24.704;2024-03-29T11:48:37;5.68;;;1.27;;
84784;SDS011;75017;41.576;24.704;2024-03-29T11:51:04;3.15;;;1.15;;
84784;SDS011;75017;41.576;24.704;2024-03-29T11:53:31;3.45;;;0.80;;
84784;SDS011;75017;41.576;24.704;2024-03-29T11:55:58;4.88;;;1.13;;
84784;SDS011;75017;41.576;24.704;2024-03-29T11:58:24;10.45;;;1.15;;
84784;SDS011;75017;41.576;24.704;2024-03-29T12:00:51;5.97;;;1.02;;
84784;SDS011;75017;41.576;24.704;2024-03-29T12:03:18;8.90;;;1.33;;
84784;SDS011;75017;41.576;24.704;2024-03-29T12:05:45;14.90;;;2.17;;
84784;SDS011;75017;41.576;24.704;2024-03-29T12:08:24;12.52;;;1.40;;
84784;SDS011;75017;41.576;24.704;2024-03-29T12:13:16;5.97;;;1.30;;
84784;SDS011;75017;41.576;24.704;2024-03-29T12:15:43;6.22;;;1.40;;
84784;SDS011;75017;41.576;24.704;2024-03-29T12:18:09;11.48;;;1.55;;
84784;SDS011;75017;41.576;24.704;2024-03-29T12:20:34;8.77;;;1.40;;
84784;SDS011;75017;41.576;24.704;2024-03-29T12:25:28;7.13;;;1.52;;
84784;SDS011;75017;41.576;24.704;2024-03-29T12:27:54;7.20;;;1.70;;
84784;SDS011;75017;41.576;24.704;2024-03-29T12:30:20;10.95;;;2.33;;
84784;SDS011;75017;41.576;24.704;2024-03-29T12:32:46;9.05;;;1.08;;
84784;SDS011;75017;41.576;24.704;2024-03-29T12:35:13;6.20;;;1.75;;
84784;SDS011;75017;41.576;24.704;2024-03-29T12:37:49;5.80;;;1.58;;
84784;SDS011;75017;41.576;24.704;2024-03-29T12:40:18;3.53;;;1.27;;
84784;SDS011;75017;41.576;24.704;2024-03-29T12:42:48;7.57;;;1.92;;
84784;SDS011;75017;41.576;24.704;2024-03-29T12:45:14;7.15;;;1.88;;
84784;SDS011;75017;41.576;24.704;2024-03-29T12:47:40;8.88;;;1.70;;
84784;SDS011;75017;41.576;24.704;2024-03-29T12:50:05;6.65;;;1.25;;
84784;SDS011;75017;41.576;24.704;2024-03-29T12:52:41;7.57;;;1.55;;
84784;SDS011;75017;41.576;24.704;2024-03-29T12:55:07;6.95;;;1.35;;
84784;SDS011;75017;41.576;24.704;2024-03-29T12:57:34;6.90;;;1.80;;
84784;SDS011;75017;41.576;24.704;2024-03-29T13:00:03;7.13;;;1.15;;
84784;SDS011;75017;41.576;24.704;2024-03-29T13:02:34;7.50;;;0.82;;
84784;SDS011;75017;41.576;24.704;2024-03-29T13:05:01;7.05;;;1.42;;
84784;SDS011;75017;41.576;24.704;2024-03-29T13:07:27;9.23;;;1.40;;
84784;SDS011;75017;41.576;24.704;2024-03-29T13:09:52;6.32;;;0.93;;
84784;SDS011;75017;41.576;24.704;2024-03-29T13:12:18;2.47;;;0.93;;
84784;SDS011;75017;41.576;24.704;2024-03-29T13:14:44;3.03;;;0.70;;
84784;SDS011;75017;41.576;24.704;2024-03-29T13:17:09;4.60;;;0.85;;
84784;SDS011;75017;41.576;24.704;2024-03-29T13:19:35;4.13;;;1.15;;
84784;SDS011;75017;41.576;24.704;2024-03-29T13:22:01;2.90;;;0.77;;
84784;SDS011;75017;41.576;24.704;2024-03-29T13:24:26;5.03;;;0.88;;
84784;SDS011;75017;41.576;24.704;2024-03-29T13:26:54;4.68;;;0.70;;
84784;SDS011;75017;41.576;24.704;2024-03-29T13:29:19;3.25;;;0.80;;
84784;SDS011;75017;41.576;24.704;2024-03-29T13:31:45;4.47;;;1.00;;
84784;SDS011;75017;41.576;24.704;2024-03-29T13:34:11;3.38;;;0.75;;
84784;SDS011;75017;41.576;24.704;2024-03-29T13:36:40;4.65;;;1.23;;
84784;SDS011;75017;41.576;24.704;2024-03-29T13:39:07;1.90;;;0.77;;
84784;SDS011;75017;41.576;24.704;2024-03-29T13:41:33;8.63;;;1.60;;
84784;SDS011;75017;41.576;24.704;2024-03-29T13:44:02;5.30;;;1.35;;
84784;SDS011;75017;41.576;24.704;2024-03-29T13:46:34;4.47;;;0.95;;
84784;SDS011;75017;41.576;24.704;2024-03-29T13:49:01;4.13;;;1.23;;
84784;SDS011;75017;41.576;24.704;2024-03-29T13:51:28;7.00;;;1.63;;
84784;SDS011;75017;41.576;24.704;2024-03-29T13:53:54;2.53;;;1.30;;
84784;SDS011;75017;41.576;24.704;2024-03-29T13:56:19;4.80;;;0.75;;
84784;SDS011;75017;41.576;24.704;2024-03-29T13:58:46;4.50;;;1.33;;
84784;SDS011;75017;41.576;24.704;2024-03-29T14:01:12;4.20;;;1.00;;
84784;SDS011;75017;41.576;24.704;2024-03-29T14:03:37;5.40;;;1.10;;
84784;SDS011;75017;41.576;24.704;2024-03-29T14:06:03;4.20;;;1.23;;
84784;SDS011;75017;41.576;24.704;2024-03-29T14:08:30;3.50;;;1.02;;
84784;SDS011;75017;41.576;24.704;2024-03-29T14:10:56;4.20;;;0.80;;
84784;SDS011;75017;41.576;24.704;2024-03-29T14:13:22;4.65;;;0.88;;
84784;SDS011;75017;41.576;24.704;2024-03-29T14:15:49;5.60;;;1.17;;
84784;SDS011;75017;41.576;24.704;2024-03-29T14:18:15;5.68;;;1.15;;
84784;SDS011;75017;41.576;24.704;2024-03-29T14:20:40;8.52;;;1.05;;
84784;SDS011;75017;41.576;24.704;2024-03-29T14:23:06;3.40;;;0.95;;
84784;SDS011;75017;41.576;24.704;2024-03-29T14:25:35;6.72;;;0.95;;
84784;SDS011;75017;41.576;24.704;2024-03-29T14:28:02;9.40;;;0.98;;
84784;SDS011;75017;41.576;24.704;2024-03-29T14:30:28;5.28;;;1.20;;
84784;SDS011;75017;41.576;24.704;2024-03-29T14:32:55;10.23;;;1.65;;
84784;SDS011;75017;41.576;24.704;2024-03-29T14:35:21;7.75;;;1.25;;
84784;SDS011;75017;41.576;24.704;2024-03-29T14:37:47;6.93;;;1.63;;
84784;SDS011;75017;41.576;24.704;2024-03-29T14:40:13;4.25;;;0.98;;
84784;SDS011;75017;41.576;24.704;2024-03-29T14:42:41;2.65;;;1.00;;